sensor_id;sensor_type;location;lat;lon;timestamp;P1;durP1;ratioP1;P2;durP2;ratioP2
59054;SDS011;44845;51.444;7.460;2022-09-09T00:00:20;1.83;;;0.88;;
59054;SDS011;44845;51.444;7.460;2022-09-09T00:02:51;4.82;;;0.60;;
59054;SDS011;44845;51.444;7.460;2022-09-09T00:05:23;4.13;;;0.88;;
59054;SDS011;44845;51.444;7.460;2022-09-09T00:07:52;0.93;;;0.32;;
59054;SDS011;44845;51.444;7.460;2022-09-09T00:10:27;2.03;;;0.70;;
59054;SDS011;44845;51.444;7.460;2022-09-09T00:20:57;1.88;;;0.55;;
59054;SDS011;44845;51.444;7.460;2022-09-09T00:25:51;3.17;;;0.60;;
59054;SDS011;44845;51.444;7.460;2022-09-09T00:28:20;5.93;;;0.60;;
59054;SDS011;44845;51.444;7.460;2022-09-09T00:30:45;3.45;;;0.68;;
59054;SDS011;44845;51.444;7.460;2022-09-09T00:33:15;1.58;;;0.50;;
59054;SDS011;44845;51.444;7.460;2022-09-09T00:35:44;1.20;;;0.40;;
59054;SDS011;44845;51.444;7.460;2022-09-09T00:38:16;3.10;;;0.50;;
59054;SDS011;44845;51.444;7.460;2022-09-09T00:52:08;2.42;;;0.68;;
59054;SDS011;44845;51.444;7.460;2022-09-09T00:57:04;2.58;;;0.80;;
59054;SDS011;44845;51.444;7.460;2022-09-09T00:59:38;2.45;;;0.80;;
59054;SDS011;44845;51.444;7.460;2022-09-09T01:02:12;1.95;;;0.95;;
59054;SDS011;44845;51.444;7.460;2022-09-09T01:04:38;2.45;;;0.85;;
59054;SDS011;44845;51.444;7.460;2022-09-09T01:07:06;1.77;;;0.57;;
59054;SDS011;44845;51.444;7.460;2022-09-09T01:09:58;2.78;;;0.90;;
59054;SDS011;44845;51.444;7.460;2022-09-09T01:12:44;2.35;;;0.80;;
59054;SDS011;44845;51.444;7.460;2022-09-09T01:17:35;3.63;;;1.10;;
59054;SDS011;44845;51.444;7.460;2022-09-09T01:20:03;4.00;;;1.10;;
59054;SDS011;44845;51.444;7.460;2022-09-09T01:27:39;3.88;;;0.98;;
59054;SDS011;44845;51.444;7.460;2022-09-09T01:30:08;2.83;;;0.98;;
59054;SDS011;44845;51.444;7.460;2022-09-09T01:32:38;2.22;;;0.82;;
59054;SDS011;44845;51.444;7.460;2022-09-09T01:35:05;6.35;;;1.08;;
59054;SDS011;44845;51.444;7.460;2022-09-09T01:37:32;3.58;;;1.13;;
59054;SDS011;44845;51.444;7.460;2022-09-09T01:39:57;4.45;;;0.80;;
59054;SDS011;44845;51.444;7.460;2022-09-09T01:42:23;4.27;;;1.13;;
59054;SDS011;44845;51.444;7.460;2022-09-09T01:44:48;3.03;;;1.00;;
59054;SDS011;44845;51.444;7.460;2022-09-09T01:47:14;4.23;;;1.03;;
59054;SDS011;44845;51.444;7.460;2022-09-09T01:49:39;3.53;;;1.10;;
59054;SDS011;44845;51.444;7.460;2022-09-09T01:52:04;5.15;;;1.20;;
59054;SDS011;44845;51.444;7.460;2022-09-09T01:54:31;3.45;;;1.52;;
59054;SDS011;44845;51.444;7.460;2022-09-09T01:57:06;4.43;;;1.10;;
59054;SDS011;44845;51.444;7.460;2022-09-09T02:02:05;3.67;;;1.00;;
59054;SDS011;44845;51.444;7.460;2022-09-09T02:04:38;2.58;;;0.90;;
59054;SDS011;44845;51.444;7.460;2022-09-09T02:07:06;2.70;;;1.00;;
59054;SDS011;44845;51.444;7.460;2022-09-09T02:09:35;4.95;;;1.20;;
59054;SDS011;44845;51.444;7.460;2022-09-09T02:12:05;5.97;;;1.08;;
59054;SDS011;44845;51.444;7.460;2022-09-09T02:14:35;3.95;;;1.08;;
59054;SDS011;44845;51.444;7.460;2022-09-09T02:17:10;3.28;;;1.10;;
59054;SDS011;44845;51.444;7.460;2022-09-09T02:19:37;7.32;;;1.05;;
59054;SDS011;44845;51.444;7.460;2022-09-09T02:22:04;4.70;;;1.20;;
59054;SDS011;44845;51.444;7.460;2022-09-09T02:24:30;2.17;;;1.00;;
59054;SDS011;44845;51.444;7.460;2022-09-09T02:26:58;3.53;;;0.90;;
59054;SDS011;44845;51.444;7.460;2022-09-09T02:29:26;4.63;;;1.20;;
59054;SDS011;44845;51.444;7.460;2022-09-09T02:31:52;2.72;;;0.80;;
59054;SDS011;44845;51.444;7.460;2022-09-09T02:34:20;4.90;;;1.27;;
59054;SDS011;44845;51.444;7.460;2022-09-09T02:36:49;1.90;;;0.98;;
59054;SDS011;44845;51.444;7.460;2022-09-09T02:39:16;3.70;;;0.98;;
59054;SDS011;44845;51.444;7.460;2022-09-09T02:41:41;3.17;;;0.80;;
59054;SDS011;44845;51.444;7.460;2022-09-09T02:44:11;2.92;;;0.90;;
59054;SDS011;44845;51.444;7.460;2022-09-09T02:46:40;2.50;;;0.82;;
59054;SDS011;44845;51.444;7.460;2022-09-09T02:49:09;3.72;;;1.10;;
59054;SDS011;44845;51.444;7.460;2022-09-09T02:54:10;5.10;;;1.17;;
59054;SDS011;44845;51.444;7.460;2022-09-09T02:56:43;2.78;;;0.82;;
59054;SDS011;44845;51.444;7.460;2022-09-09T02:59:09;3.45;;;0.90;;
59054;SDS011;44845;51.444;7.460;2022-09-09T03:01:36;2.28;;;0.63;;
59054;SDS011;44845;51.444;7.460;2022-09-09T03:04:02;2.90;;;1.00;;
59054;SDS011;44845;51.444;7.460;2022-09-09T03:06:30;4.05;;;0.90;;
59054;SDS011;44845;51.444;7.460;2022-09-09T03:08:55;2.65;;;0.80;;
59054;SDS011;44845;51.444;7.460;2022-09-09T03:11:22;4.25;;;1.00;;
59054;SDS011;44845;51.444;7.460;2022-09-09T03:13:47;3.60;;;0.73;;
59054;SDS011;44845;51.444;7.460;2022-09-09T03:16:13;5.32;;;0.73;;
59054;SDS011;44845;51.444;7.460;2022-09-09T03:18:40;2.30;;;0.80;;
59054;SDS011;44845;51.444;7.460;2022-09-09T03:21:05;4.60;;;1.30;;
59054;SDS011;44845;51.444;7.460;2022-09-09T03:23:30;3.95;;;1.02;;
59054;SDS011;44845;51.444;7.460;2022-09-09T03:25:55;3.53;;;0.87;;
59054;SDS011;44845;51.444;7.460;2022-09-09T03:28:22;3.75;;;0.98;;
59054;SDS011;44845;51.444;7.460;2022-09-09T03:30:48;6.80;;;1.20;;
59054;SDS011;44845;51.444;7.460;2022-09-09T03:33:13;3.05;;;1.10;;
59054;SDS011;44845;51.444;7.460;2022-09-09T03:35:44;2.83;;;1.02;;
59054;SDS011;44845;51.444;7.460;2022-09-09T03:38:11;6.43;;;1.40;;
59054;SDS011;44845;51.444;7.460;2022-09-09T03:40:37;4.45;;;1.30;;
59054;SDS011;44845;51.444;7.460;2022-09-09T03:43:02;2.83;;;0.90;;
59054;SDS011;44845;51.444;7.460;2022-09-09T03:45:27;5.37;;;1.03;;
59054;SDS011;44845;51.444;7.460;2022-09-09T03:47:52;7.10;;;0.87;;
59054;SDS011;44845;51.444;7.460;2022-09-09T03:50:17;3.92;;;0.90;;
59054;SDS011;44845;51.444;7.460;2022-09-09T03:52:43;5.50;;;1.23;;
59054;SDS011;44845;51.444;7.460;2022-09-09T03:55:08;4.20;;;1.05;;
59054;SDS011;44845;51.444;7.460;2022-09-09T03:57:34;7.33;;;1.10;;
59054;SDS011;44845;51.444;7.460;2022-09-09T04:00:04;3.67;;;1.08;;
59054;SDS011;44845;51.444;7.460;2022-09-09T04:02:30;6.72;;;1.23;;
59054;SDS011;44845;51.444;7.460;2022-09-09T04:04:55;5.13;;;1.07;;
59054;SDS011;44845;51.444;7.460;2022-09-09T04:07:21;4.13;;;0.90;;
59054;SDS011;44845;51.444;7.460;2022-09-09T04:09:46;6.03;;;1.10;;
59054;SDS011;44845;51.444;7.460;2022-09-09T04:12:11;4.53;;;1.02;;
59054;SDS011;44845;51.444;7.460;2022-09-09T04:14:38;4.43;;;0.90;;
59054;SDS011;44845;51.444;7.460;2022-09-09T04:17:03;6.10;;;1.40;;
59054;SDS011;44845;51.444;7.460;2022-09-09T04:19:31;3.35;;;1.20;;
59054;SDS011;44845;51.444;7.460;2022-09-09T04:21:56;3.22;;;0.85;;
59054;SDS011;44845;51.444;7.460;2022-09-09T04:24:21;8.27;;;1.02;;
59054;SDS011;44845;51.444;7.460;2022-09-09T04:26:47;2.83;;;1.00;;
59054;SDS011;44845;51.444;7.460;2022-09-09T04:29:12;5.13;;;1.10;;
59054;SDS011;44845;51.444;7.460;2022-09-09T04:31:37;2.83;;;1.02;;
59054;SDS011;44845;51.444;7.460;2022-09-09T04:34:06;5.03;;;1.30;;
59054;SDS011;44845;51.444;7.460;2022-09-09T04:36:32;4.70;;;0.93;;
59054;SDS011;44845;51.444;7.460;2022-09-09T04:38:57;3.05;;;0.82;;
59054;SDS011;44845;51.444;7.460;2022-09-09T04:41:22;2.33;;;1.20;;
59054;SDS011;44845;51.444;7.460;2022-09-09T04:43:48;5.38;;;1.73;;
59054;SDS011;44845;51.444;7.460;2022-09-09T04:46:13;4.15;;;1.13;;
59054;SDS011;44845;51.444;7.460;2022-09-09T04:48:41;5.10;;;1.08;;
59054;SDS011;44845;51.444;7.460;2022-09-09T04:51:08;4.63;;;0.90;;
59054;SDS011;44845;51.444;7.460;2022-09-09T04:53:34;3.70;;;1.13;;
59054;SDS011;44845;51.444;7.460;2022-09-09T04:56:06;5.10;;;1.40;;
59054;SDS011;44845;51.444;7.460;2022-09-09T04:58:32;5.90;;;1.20;;
59054;SDS011;44845;51.444;7.460;2022-09-09T05:01:07;5.00;;;1.33;;
59054;SDS011;44845;51.444;7.460;2022-09-09T05:03:32;4.85;;;1.10;;
59054;SDS011;44845;51.444;7.460;2022-09-09T05:06:04;6.30;;;1.23;;
59054;SDS011;44845;51.444;7.460;2022-09-09T05:08:29;5.22;;;1.13;;
59054;SDS011;44845;51.444;7.460;2022-09-09T05:10:55;7.40;;;1.43;;
59054;SDS011;44845;51.444;7.460;2022-09-09T05:13:20;2.60;;;0.82;;
59054;SDS011;44845;51.444;7.460;2022-09-09T05:15:51;4.55;;;1.30;;
59054;SDS011;44845;51.444;7.460;2022-09-09T05:18:16;4.68;;;1.23;;
59054;SDS011;44845;51.444;7.460;2022-09-09T05:20:41;8.90;;;1.53;;
59054;SDS011;44845;51.444;7.460;2022-09-09T05:23:07;7.25;;;1.60;;
59054;SDS011;44845;51.444;7.460;2022-09-09T05:25:32;6.30;;;1.20;;
59054;SDS011;44845;51.444;7.460;2022-09-09T05:27:58;3.15;;;0.95;;
59054;SDS011;44845;51.444;7.460;2022-09-09T05:30:24;4.80;;;1.17;;
59054;SDS011;44845;51.444;7.460;2022-09-09T05:32:51;7.95;;;1.13;;
59054;SDS011;44845;51.444;7.460;2022-09-09T05:35:16;5.53;;;1.30;;
59054;SDS011;44845;51.444;7.460;2022-09-09T05:37:43;4.60;;;1.58;;
59054;SDS011;44845;51.444;7.460;2022-09-09T05:40:09;3.30;;;1.20;;
59054;SDS011;44845;51.444;7.460;2022-09-09T05:42:35;5.60;;;1.50;;
59054;SDS011;44845;51.444;7.460;2022-09-09T05:45:00;3.57;;;1.30;;
59054;SDS011;44845;51.444;7.460;2022-09-09T05:47:26;5.40;;;1.40;;
59054;SDS011;44845;51.444;7.460;2022-09-09T05:49:52;5.53;;;1.40;;
59054;SDS011;44845;51.444;7.460;2022-09-09T05:52:17;5.33;;;1.43;;
59054;SDS011;44845;51.444;7.460;2022-09-09T05:54:43;4.97;;;1.30;;
59054;SDS011;44845;51.444;7.460;2022-09-09T05:57:08;6.57;;;1.17;;
59054;SDS011;44845;51.444;7.460;2022-09-09T05:59:33;5.80;;;1.47;;
59054;SDS011;44845;51.444;7.460;2022-09-09T06:01:58;7.13;;;1.58;;
59054;SDS011;44845;51.444;7.460;2022-09-09T06:04:24;8.73;;;1.13;;
59054;SDS011;44845;51.444;7.460;2022-09-09T06:06:49;6.88;;;1.48;;
59054;SDS011;44845;51.444;7.460;2022-09-09T06:09:15;6.70;;;1.80;;
59054;SDS011;44845;51.444;7.460;2022-09-09T06:11:40;7.97;;;1.63;;
59054;SDS011;44845;51.444;7.460;2022-09-09T06:14:06;4.38;;;1.10;;
59054;SDS011;44845;51.444;7.460;2022-09-09T06:16:31;7.28;;;1.30;;
59054;SDS011;44845;51.444;7.460;2022-09-09T06:18:57;4.10;;;1.00;;
59054;SDS011;44845;51.444;7.460;2022-09-09T06:21:23;3.30;;;1.20;;
59054;SDS011;44845;51.444;7.460;2022-09-09T06:23:49;3.75;;;1.08;;
59054;SDS011;44845;51.444;7.460;2022-09-09T06:28:43;4.63;;;1.30;;
59054;SDS011;44845;51.444;7.460;2022-09-09T06:31:09;5.18;;;1.40;;
59054;SDS011;44845;51.444;7.460;2022-09-09T06:33:35;5.80;;;1.50;;
59054;SDS011;44845;51.444;7.460;2022-09-09T06:36:01;8.77;;;1.98;;
59054;SDS011;44845;51.444;7.460;2022-09-09T06:38:26;6.15;;;1.20;;
59054;SDS011;44845;51.444;7.460;2022-09-09T06:40:53;8.18;;;1.30;;
59054;SDS011;44845;51.444;7.460;2022-09-09T06:43:20;5.47;;;1.27;;
59054;SDS011;44845;51.444;7.460;2022-09-09T06:45:52;4.07;;;1.20;;
59054;SDS011;44845;51.444;7.460;2022-09-09T06:48:17;6.88;;;1.35;;
59054;SDS011;44845;51.444;7.460;2022-09-09T06:50:43;8.43;;;1.87;;
59054;SDS011;44845;51.444;7.460;2022-09-09T06:53:08;4.30;;;1.30;;
59054;SDS011;44845;51.444;7.460;2022-09-09T06:55:33;5.20;;;1.38;;
59054;SDS011;44845;51.444;7.460;2022-09-09T06:57:58;4.97;;;1.23;;
59054;SDS011;44845;51.444;7.460;2022-09-09T07:00:25;7.40;;;1.27;;
59054;SDS011;44845;51.444;7.460;2022-09-09T07:02:50;6.57;;;1.17;;
59054;SDS011;44845;51.444;7.460;2022-09-09T07:05:15;9.50;;;1.05;;
59054;SDS011;44845;51.444;7.460;2022-09-09T07:07:41;4.40;;;1.17;;
59054;SDS011;44845;51.444;7.460;2022-09-09T07:10:06;4.07;;;1.00;;
59054;SDS011;44845;51.444;7.460;2022-09-09T07:12:32;3.83;;;1.17;;
59054;SDS011;44845;51.444;7.460;2022-09-09T07:14:57;4.73;;;1.07;;
59054;SDS011;44845;51.444;7.460;2022-09-09T07:17:23;7.32;;;1.02;;
59054;SDS011;44845;51.444;7.460;2022-09-09T07:19:48;3.33;;;0.87;;
59054;SDS011;44845;51.444;7.460;2022-09-09T07:22:13;5.37;;;1.20;;
59054;SDS011;44845;51.444;7.460;2022-09-09T07:24:39;5.07;;;1.50;;
59054;SDS011;44845;51.444;7.460;2022-09-09T07:27:04;4.57;;;1.23;;
59054;SDS011;44845;51.444;7.460;2022-09-09T07:29:30;5.30;;;1.20;;
59054;SDS011;44845;51.444;7.460;2022-09-09T07:31:55;6.60;;;1.03;;
59054;SDS011;44845;51.444;7.460;2022-09-09T07:34:21;3.30;;;0.63;;
59054;SDS011;44845;51.444;7.460;2022-09-09T07:36:46;3.90;;;0.80;;
59054;SDS011;44845;51.444;7.460;2022-09-09T07:39:12;4.50;;;0.90;;
59054;SDS011;44845;51.444;7.460;2022-09-09T07:41:43;9.35;;;1.17;;
59054;SDS011;44845;51.444;7.460;2022-09-09T07:44:10;4.15;;;1.10;;
59054;SDS011;44845;51.444;7.460;2022-09-09T07:46:36;5.45;;;1.23;;
59054;SDS011;44845;51.444;7.460;2022-09-09T07:49:01;7.72;;;1.20;;
59054;SDS011;44845;51.444;7.460;2022-09-09T07:51:31;3.78;;;0.80;;
59054;SDS011;44845;51.444;7.460;2022-09-09T07:53:58;4.60;;;0.73;;
59054;SDS011;44845;51.444;7.460;2022-09-09T07:56:24;7.43;;;1.00;;
59054;SDS011;44845;51.444;7.460;2022-09-09T07:58:50;9.77;;;1.25;;
59054;SDS011;44845;51.444;7.460;2022-09-09T08:01:17;5.03;;;1.27;;
59054;SDS011;44845;51.444;7.460;2022-09-09T08:03:43;4.55;;;1.00;;
59054;SDS011;44845;51.444;7.460;2022-09-09T08:06:09;4.88;;;1.00;;
59054;SDS011;44845;51.444;7.460;2022-09-09T08:08:35;5.85;;;1.10;;
59054;SDS011;44845;51.444;7.460;2022-09-09T08:11:02;8.23;;;1.13;;
59054;SDS011;44845;51.444;7.460;2022-09-09T08:13:27;5.70;;;1.00;;
59054;SDS011;44845;51.444;7.460;2022-09-09T08:15:52;6.50;;;1.37;;
59054;SDS011;44845;51.444;7.460;2022-09-09T08:18:17;6.67;;;1.13;;
59054;SDS011;44845;51.444;7.460;2022-09-09T08:20:43;7.07;;;1.10;;
59054;SDS011;44845;51.444;7.460;2022-09-09T08:23:08;5.75;;;1.30;;
59054;SDS011;44845;51.444;7.460;2022-09-09T08:25:33;5.53;;;1.30;;
59054;SDS011;44845;51.444;7.460;2022-09-09T08:27:59;9.45;;;1.08;;
59054;SDS011;44845;51.444;7.460;2022-09-09T08:30:24;6.40;;;0.80;;
59054;SDS011;44845;51.444;7.460;2022-09-09T08:32:49;9.77;;;1.30;;
59054;SDS011;44845;51.444;7.460;2022-09-09T08:35:16;7.45;;;1.02;;
59054;SDS011;44845;51.444;7.460;2022-09-09T08:37:42;5.78;;;1.23;;
59054;SDS011;44845;51.444;7.460;2022-09-09T08:40:08;13.90;;;1.57;;
59054;SDS011;44845;51.444;7.460;2022-09-09T08:42:43;6.20;;;1.20;;
59054;SDS011;44845;51.444;7.460;2022-09-09T08:45:15;7.03;;;1.25;;
59054;SDS011;44845;51.444;7.460;2022-09-09T08:58:08;3.28;;;0.73;;
59054;SDS011;44845;51.444;7.460;2022-09-09T09:00:39;6.75;;;1.17;;
59054;SDS011;44845;51.444;7.460;2022-09-09T09:03:07;4.22;;;0.90;;
59054;SDS011;44845;51.444;7.460;2022-09-09T09:05:37;5.68;;;1.00;;
59054;SDS011;44845;51.444;7.460;2022-09-09T09:10:49;4.90;;;1.10;;
59054;SDS011;44845;51.444;7.460;2022-09-09T09:13:15;8.13;;;1.15;;
59054;SDS011;44845;51.444;7.460;2022-09-09T09:15:42;6.75;;;1.05;;
59054;SDS011;44845;51.444;7.460;2022-09-09T09:18:10;2.80;;;0.90;;
59054;SDS011;44845;51.444;7.460;2022-09-09T09:23:15;5.68;;;0.93;;
59054;SDS011;44845;51.444;7.460;2022-09-09T09:25:43;8.85;;;0.93;;
59054;SDS011;44845;51.444;7.460;2022-09-09T09:28:21;4.63;;;1.10;;
59054;SDS011;44845;51.444;7.460;2022-09-09T09:30:49;7.10;;;1.40;;
59054;SDS011;44845;51.444;7.460;2022-09-09T09:33:18;6.15;;;0.88;;
59054;SDS011;44845;51.444;7.460;2022-09-09T09:35:46;4.57;;;0.98;;
59054;SDS011;44845;51.444;7.460;2022-09-09T09:38:17;4.15;;;0.85;;
59054;SDS011;44845;51.444;7.460;2022-09-09T09:40:52;6.55;;;1.10;;
59054;SDS011;44845;51.444;7.460;2022-09-09T09:43:22;5.47;;;0.93;;
59054;SDS011;44845;51.444;7.460;2022-09-09T09:45:48;6.70;;;1.25;;
59054;SDS011;44845;51.444;7.460;2022-09-09T09:48:14;2.40;;;0.83;;
59054;SDS011;44845;51.444;7.460;2022-09-09T09:50:49;4.28;;;1.33;;
59054;SDS011;44845;51.444;7.460;2022-09-09T09:53:34;4.22;;;1.10;;
59054;SDS011;44845;51.444;7.460;2022-09-09T09:56:01;2.45;;;0.88;;
59054;SDS011;44845;51.444;7.460;2022-09-09T09:58:27;7.82;;;0.90;;
59054;SDS011;44845;51.444;7.460;2022-09-09T10:00:55;4.95;;;0.90;;
59054;SDS011;44845;51.444;7.460;2022-09-09T10:03:25;6.68;;;1.20;;
59054;SDS011;44845;51.444;7.460;2022-09-09T10:05:51;5.90;;;1.00;;
59054;SDS011;44845;51.444;7.460;2022-09-09T10:08:17;7.82;;;1.25;;
59054;SDS011;44845;51.444;7.460;2022-09-09T10:13:17;6.85;;;1.17;;
59054;SDS011;44845;51.444;7.460;2022-09-09T10:16:01;4.53;;;1.02;;
59054;SDS011;44845;51.444;7.460;2022-09-09T10:23:51;2.92;;;0.90;;
59054;SDS011;44845;51.444;7.460;2022-09-09T10:36:48;3.17;;;1.07;;
59054;SDS011;44845;51.444;7.460;2022-09-09T10:41:50;5.90;;;1.02;;
59054;SDS011;44845;51.444;7.460;2022-09-09T10:44:27;4.03;;;0.60;;
59054;SDS011;44845;51.444;7.460;2022-09-09T10:52:25;3.63;;;0.80;;
59054;SDS011;44845;51.444;7.460;2022-09-09T11:00:05;3.67;;;0.90;;
59054;SDS011;44845;51.444;7.460;2022-09-09T11:02:32;3.78;;;0.80;;
59054;SDS011;44845;51.444;7.460;2022-09-09T11:05:06;3.95;;;0.80;;
59054;SDS011;44845;51.444;7.460;2022-09-09T11:10:01;5.22;;;0.80;;
59054;SDS011;44845;51.444;7.460;2022-09-09T11:12:27;3.10;;;0.82;;
59054;SDS011;44845;51.444;7.460;2022-09-09T11:14:54;2.05;;;0.60;;
59054;SDS011;44845;51.444;7.460;2022-09-09T11:17:23;1.27;;;0.60;;
59054;SDS011;44845;51.444;7.460;2022-09-09T11:19:49;2.85;;;0.73;;
59054;SDS011;44845;51.444;7.460;2022-09-09T11:22:32;4.88;;;0.70;;
59054;SDS011;44845;51.444;7.460;2022-09-09T11:27:26;4.78;;;0.77;;
59054;SDS011;44845;51.444;7.460;2022-09-09T11:42:39;4.10;;;0.60;;
59054;SDS011;44845;51.444;7.460;2022-09-09T11:47:51;2.80;;;1.20;;
59054;SDS011;44845;51.444;7.460;2022-09-09T11:52:44;2.67;;;0.80;;
59054;SDS011;44845;51.444;7.460;2022-09-09T12:02:52;2.85;;;0.60;;
59054;SDS011;44845;51.444;7.460;2022-09-09T12:05:17;1.50;;;0.50;;
59054;SDS011;44845;51.444;7.460;2022-09-09T12:07:50;3.00;;;0.70;;
59054;SDS011;44845;51.444;7.460;2022-09-09T12:10:34;3.47;;;0.50;;
59054;SDS011;44845;51.444;7.460;2022-09-09T12:13:08;1.98;;;0.43;;
59054;SDS011;44845;51.444;7.460;2022-09-09T12:15:46;2.92;;;0.47;;
59054;SDS011;44845;51.444;7.460;2022-09-09T12:18:14;6.13;;;0.75;;
59054;SDS011;44845;51.444;7.460;2022-09-09T12:20:40;3.83;;;1.00;;
59054;SDS011;44845;51.444;7.460;2022-09-09T12:28:33;1.27;;;0.50;;
59054;SDS011;44845;51.444;7.460;2022-09-09T12:33:42;2.63;;;0.68;;
59054;SDS011;44845;51.444;7.460;2022-09-09T12:36:11;4.68;;;0.70;;
59054;SDS011;44845;51.444;7.460;2022-09-09T12:38:38;3.25;;;0.65;;
59054;SDS011;44845;51.444;7.460;2022-09-09T12:41:04;3.13;;;0.70;;
59054;SDS011;44845;51.444;7.460;2022-09-09T12:43:30;1.73;;;0.55;;
59054;SDS011;44845;51.444;7.460;2022-09-09T12:45:57;2.50;;;0.80;;
59054;SDS011;44845;51.444;7.460;2022-09-09T12:48:31;3.00;;;0.52;;
59054;SDS011;44845;51.444;7.460;2022-09-09T12:50:57;3.95;;;0.70;;
59054;SDS011;44845;51.444;7.460;2022-09-09T12:53:24;4.05;;;0.60;;
59054;SDS011;44845;51.444;7.460;2022-09-09T12:55:52;3.05;;;0.50;;
59054;SDS011;44845;51.444;7.460;2022-09-09T12:58:17;2.13;;;0.50;;
59054;SDS011;44845;51.444;7.460;2022-09-09T13:00:50;3.42;;;0.55;;
59054;SDS011;44845;51.444;7.460;2022-09-09T13:03:17;4.47;;;0.60;;
59054;SDS011;44845;51.444;7.460;2022-09-09T13:05:43;3.40;;;0.80;;
59054;SDS011;44845;51.444;7.460;2022-09-09T13:08:09;3.57;;;0.67;;
59054;SDS011;44845;51.444;7.460;2022-09-09T13:10:36;3.45;;;0.88;;
59054;SDS011;44845;51.444;7.460;2022-09-09T13:13:04;3.90;;;0.88;;
59054;SDS011;44845;51.444;7.460;2022-09-09T13:15:29;2.30;;;0.70;;
59054;SDS011;44845;51.444;7.460;2022-09-09T13:17:59;3.33;;;0.53;;
59054;SDS011;44845;51.444;7.460;2022-09-09T13:20:26;4.82;;;0.55;;
59054;SDS011;44845;51.444;7.460;2022-09-09T13:22:51;1.70;;;0.85;;
59054;SDS011;44845;51.444;7.460;2022-09-09T13:27:51;3.63;;;0.80;;
59054;SDS011;44845;51.444;7.460;2022-09-09T13:30:22;3.03;;;0.80;;
59054;SDS011;44845;51.444;7.460;2022-09-09T13:32:59;3.83;;;0.68;;
59054;SDS011;44845;51.444;7.460;2022-09-09T13:35:26;4.10;;;0.70;;
59054;SDS011;44845;51.444;7.460;2022-09-09T13:37:51;2.47;;;0.60;;
59054;SDS011;44845;51.444;7.460;2022-09-09T13:40:20;3.50;;;0.70;;
59054;SDS011;44845;51.444;7.460;2022-09-09T13:42:46;3.92;;;0.50;;
59054;SDS011;44845;51.444;7.460;2022-09-09T13:45:15;3.65;;;0.65;;
59054;SDS011;44845;51.444;7.460;2022-09-09T13:47:42;2.13;;;0.57;;
59054;SDS011;44845;51.444;7.460;2022-09-09T13:50:20;2.80;;;0.63;;
59054;SDS011;44845;51.444;7.460;2022-09-09T13:52:47;2.97;;;1.08;;
59054;SDS011;44845;51.444;7.460;2022-09-09T13:55:14;1.75;;;0.52;;
59054;SDS011;44845;51.444;7.460;2022-09-09T13:57:39;3.13;;;0.60;;
59054;SDS011;44845;51.444;7.460;2022-09-09T14:00:15;6.78;;;0.88;;
59054;SDS011;44845;51.444;7.460;2022-09-09T14:02:40;5.10;;;0.60;;
59054;SDS011;44845;51.444;7.460;2022-09-09T14:05:05;3.90;;;0.67;;
59054;SDS011;44845;51.444;7.460;2022-09-09T14:07:31;4.93;;;1.00;;
59054;SDS011;44845;51.444;7.460;2022-09-09T14:09:59;2.97;;;0.60;;
59054;SDS011;44845;51.444;7.460;2022-09-09T14:12:25;7.88;;;0.80;;
59054;SDS011;44845;51.444;7.460;2022-09-09T14:14:50;3.63;;;0.90;;
59054;SDS011;44845;51.444;7.460;2022-09-09T14:17:15;3.33;;;0.65;;
59054;SDS011;44845;51.444;7.460;2022-09-09T14:19:41;4.75;;;0.90;;
59054;SDS011;44845;51.444;7.460;2022-09-09T14:22:06;2.97;;;0.65;;
59054;SDS011;44845;51.444;7.460;2022-09-09T14:24:31;1.90;;;0.52;;
59054;SDS011;44845;51.444;7.460;2022-09-09T14:26:56;4.77;;;0.77;;
59054;SDS011;44845;51.444;7.460;2022-09-09T14:29:22;4.90;;;1.10;;
59054;SDS011;44845;51.444;7.460;2022-09-09T14:31:47;5.78;;;0.73;;
59054;SDS011;44845;51.444;7.460;2022-09-09T14:34:12;4.90;;;0.70;;
59054;SDS011;44845;51.444;7.460;2022-09-09T14:36:39;3.65;;;0.90;;
59054;SDS011;44845;51.444;7.460;2022-09-09T14:39:06;1.50;;;0.60;;
59054;SDS011;44845;51.444;7.460;2022-09-09T14:41:31;2.33;;;0.80;;
59054;SDS011;44845;51.444;7.460;2022-09-09T14:43:56;3.42;;;0.80;;
59054;SDS011;44845;51.444;7.460;2022-09-09T14:46:22;3.45;;;0.73;;
59054;SDS011;44845;51.444;7.460;2022-09-09T14:48:48;3.70;;;1.05;;
59054;SDS011;44845;51.444;7.460;2022-09-09T14:53:39;2.53;;;0.80;;
59054;SDS011;44845;51.444;7.460;2022-09-09T14:56:08;3.75;;;1.05;;
59054;SDS011;44845;51.444;7.460;2022-09-09T14:58:33;3.65;;;0.90;;
59054;SDS011;44845;51.444;7.460;2022-09-09T15:01:06;3.83;;;0.70;;
59054;SDS011;44845;51.444;7.460;2022-09-09T15:03:32;3.67;;;0.60;;
59054;SDS011;44845;51.444;7.460;2022-09-09T15:05:58;4.45;;;0.82;;
59054;SDS011;44845;51.444;7.460;2022-09-09T15:08:23;4.13;;;0.98;;
59054;SDS011;44845;51.444;7.460;2022-09-09T15:10:48;4.00;;;0.88;;
59054;SDS011;44845;51.444;7.460;2022-09-09T15:13:15;3.40;;;0.70;;
59054;SDS011;44845;51.444;7.460;2022-09-09T15:15:41;4.47;;;0.80;;
59054;SDS011;44845;51.444;7.460;2022-09-09T15:18:07;3.20;;;0.50;;
59054;SDS011;44845;51.444;7.460;2022-09-09T15:20:32;2.80;;;0.77;;
59054;SDS011;44845;51.444;7.460;2022-09-09T15:22:57;2.27;;;0.80;;
59054;SDS011;44845;51.444;7.460;2022-09-09T15:25:22;2.27;;;0.60;;
59054;SDS011;44845;51.444;7.460;2022-09-09T15:27:47;3.33;;;0.83;;
59054;SDS011;44845;51.444;7.460;2022-09-09T15:30:13;1.85;;;0.60;;
59054;SDS011;44845;51.444;7.460;2022-09-09T15:32:38;2.10;;;0.70;;
59054;SDS011;44845;51.444;7.460;2022-09-09T15:35:04;3.67;;;0.80;;
59054;SDS011;44845;51.444;7.460;2022-09-09T15:37:29;2.63;;;0.65;;
59054;SDS011;44845;51.444;7.460;2022-09-09T15:39:55;3.33;;;0.50;;
59054;SDS011;44845;51.444;7.460;2022-09-09T15:42:23;2.47;;;0.68;;
59054;SDS011;44845;51.444;7.460;2022-09-09T15:44:50;3.67;;;0.70;;
59054;SDS011;44845;51.444;7.460;2022-09-09T15:47:15;2.65;;;0.80;;
59054;SDS011;44845;51.444;7.460;2022-09-09T15:49:41;4.80;;;1.00;;
59054;SDS011;44845;51.444;7.460;2022-09-09T15:52:08;4.32;;;1.00;;
59054;SDS011;44845;51.444;7.460;2022-09-09T15:54:34;5.75;;;1.23;;
59054;SDS011;44845;51.444;7.460;2022-09-09T15:57:01;4.50;;;0.90;;
59054;SDS011;44845;51.444;7.460;2022-09-09T15:59:27;3.10;;;0.90;;
59054;SDS011;44845;51.444;7.460;2022-09-09T16:01:53;3.22;;;0.75;;
59054;SDS011;44845;51.444;7.460;2022-09-09T16:04:19;4.65;;;1.33;;
59054;SDS011;44845;51.444;7.460;2022-09-09T16:06:49;5.65;;;1.13;;
59054;SDS011;44845;51.444;7.460;2022-09-09T16:09:15;1.98;;;0.90;;
59054;SDS011;44845;51.444;7.460;2022-09-09T16:11:40;3.42;;;0.70;;
59054;SDS011;44845;51.444;7.460;2022-09-09T16:14:05;1.80;;;0.47;;
59054;SDS011;44845;51.444;7.460;2022-09-09T16:16:31;1.20;;;0.50;;
59054;SDS011;44845;51.444;7.460;2022-09-09T16:18:58;2.97;;;0.70;;
59054;SDS011;44845;51.444;7.460;2022-09-09T16:21:27;2.17;;;0.70;;
59054;SDS011;44845;51.444;7.460;2022-09-09T16:23:54;1.58;;;0.57;;
59054;SDS011;44845;51.444;7.460;2022-09-09T16:26:19;1.60;;;0.52;;
59054;SDS011;44845;51.444;7.460;2022-09-09T16:28:45;4.03;;;0.52;;
59054;SDS011;44845;51.444;7.460;2022-09-09T16:31:13;3.55;;;0.60;;
59054;SDS011;44845;51.444;7.460;2022-09-09T16:33:39;4.28;;;1.25;;
59054;SDS011;44845;51.444;7.460;2022-09-09T16:36:05;2.25;;;0.90;;
59054;SDS011;44845;51.444;7.460;2022-09-09T16:38:31;3.40;;;0.93;;
59054;SDS011;44845;51.444;7.460;2022-09-09T16:41:01;2.22;;;0.60;;
59054;SDS011;44845;51.444;7.460;2022-09-09T16:43:26;4.15;;;0.85;;
59054;SDS011;44845;51.444;7.460;2022-09-09T16:45:51;2.67;;;0.50;;
59054;SDS011;44845;51.444;7.460;2022-09-09T16:48:16;3.10;;;0.70;;
59054;SDS011;44845;51.444;7.460;2022-09-09T16:50:42;6.70;;;1.10;;
59054;SDS011;44845;51.444;7.460;2022-09-09T16:53:07;4.03;;;0.50;;
59054;SDS011;44845;51.444;7.460;2022-09-09T16:55:37;1.48;;;0.70;;
59054;SDS011;44845;51.444;7.460;2022-09-09T16:58:02;1.05;;;0.70;;